PWSweather.com
Personal Weather Stations
Station Observations
FEDE1991
Gimnasia, ChivilcoyAR

GimnasiaChivilcoyAR

Lat: -34.8841772, Lon: -60.0315799

Elevation: 36

Station Type: WH1081

http://climachivilcoy.blogspot.com.ar/

Latest ConditionsUpdated 2:41:39 PM GMT-03:57 Tuesday, Jan 22, 2019
Currently Today's Max Today's Min Today's Average
Temperature 90.0°F32.2°C 90.0°F32.2°C 68.5°F20.3°C 77.0°F25.0°C
Dew Point 76.6°F24.8°C 77.2°F25.1°C 68.5°F20.3°C 72.9°F22.7°C
Winds 7.6 mph 12.2 kmh 13.0 mph -20.9 kmh - - 5.5 mph 8.9 kmh
Wind Gusts 15.9 mph25.6 kmh 19.7 mph31.7 kmh - -
Humidity 65% 100% 64% 89%
Pressure 29.57 in1001.4 mb 29.70 in1005.8 mb 29.57 in1001.4 mb -
Hour Temp Dew Point Humidity Winds Wind Gusts Pressure Precip Precip Rate Daily Precip Total
02:41 PM 90.0°F32.2°C 76.6°F24.8°C 65% 7.6 mph 12.2 kmh 15.9 mph25.6 kmh 29.57 in1001.4 mb 0.00 in0.0 mm 0.00 in0.0 mm 0.00 in0.0 mm
02:31 PM 89.2°F31.8°C 76.5°F24.7°C 66% 5.4 mph NW8.7 kmh NW 16.8 mph27.0 kmh 29.58 in1001.7 mb 0.00 in0.0 mm 0.00 in0.0 mm 0.00 in0.0 mm
02:21 PM 89.1°F31.7°C 77.2°F25.1°C 68% 6.0 mph NW9.7 kmh NW 15.9 mph25.6 kmh 29.58 in1001.7 mb 0.00 in0.0 mm 0.00 in0.0 mm 0.00 in0.0 mm
02:11 PM 89.1°F31.7°C 76.6°F24.8°C 67% 7.6 mph 12.2 kmh 19.7 mph31.7 kmh 29.59 in1002.0 mb 0.00 in0.0 mm 0.00 in0.0 mm 0.00 in0.0 mm
02:01 PM 89.1°F31.7°C 77.2°F25.1°C 68% 5.4 mph 8.7 kmh 14.5 mph23.3 kmh 29.59 in1002.0 mb 0.00 in0.0 mm 0.00 in0.0 mm 0.00 in0.0 mm
01:51 PM 89.2°F31.8°C 76.8°F24.9°C 67% 6.0 mph WNW9.7 kmh WNW 15.9 mph25.6 kmh 29.59 in1002.0 mb 0.00 in0.0 mm 0.00 in0.0 mm 0.00 in0.0 mm
01:41 PM 89.4°F31.9°C 76.6°F24.8°C 66% 8.3 mph 13.4 kmh 12.1 mph19.5 kmh 29.60 in1002.4 mb 0.00 in0.0 mm 0.00 in0.0 mm 0.00 in0.0 mm
01:30 PM 88.9°F31.6°C 75.6°F24.2°C 65% 6.0 mph 9.7 kmh 18.3 mph29.5 kmh 29.60 in1002.4 mb 0.00 in0.0 mm 0.00 in0.0 mm 0.00 in0.0 mm
01:20 PM 89.2°F31.8°C 75.9°F24.4°C 65% 12.1 mph 19.5 kmh 19.0 mph30.6 kmh 29.61 in1002.7 mb 0.00 in0.0 mm 0.00 in0.0 mm 0.00 in0.0 mm
01:10 PM 88.9°F31.6°C 76.1°F24.5°C 66% 6.9 mph NNW11.1 kmh NNW 16.8 mph27.0 kmh 29.61 in1002.7 mb 0.00 in0.0 mm 0.00 in0.0 mm 0.00 in0.0 mm
01:00 PM 89.1°F31.7°C 75.2°F24.0°C 64% 9.8 mph 15.8 kmh 17.4 mph28.0 kmh 29.61 in1002.7 mb 0.00 in0.0 mm 0.00 in0.0 mm 0.00 in0.0 mm
12:50 PM 88.3°F31.3°C 76.5°F24.7°C 68% 6.9 mph NW11.1 kmh NW 15.9 mph25.6 kmh 29.62 in1003.0 mb 0.00 in0.0 mm 0.00 in0.0 mm 0.00 in0.0 mm
12:40 PM 88.0°F31.1°C 75.6°F24.2°C 67% 9.8 mph 15.8 kmh 18.3 mph29.5 kmh 29.62 in1003.0 mb 0.00 in0.0 mm 0.00 in0.0 mm 0.00 in0.0 mm
12:30 PM 88.0°F31.1°C 74.7°F23.7°C 65% 12.1 mph WNW19.5 kmh WNW 16.8 mph27.0 kmh 29.63 in1003.4 mb 0.00 in0.0 mm 0.00 in0.0 mm 0.00 in0.0 mm
12:20 PM 87.6°F30.9°C 75.7°F24.3°C 68% 12.1 mph NW19.5 kmh NW 19.0 mph30.6 kmh 29.63 in1003.4 mb 0.00 in0.0 mm 0.00 in0.0 mm 0.00 in0.0 mm
12:10 PM 87.8°F31.0°C 75.9°F24.4°C 68% 7.6 mph WNW12.2 kmh WNW 18.3 mph29.5 kmh 29.64 in1003.7 mb 0.00 in0.0 mm 0.00 in0.0 mm 0.00 in0.0 mm
12:00 PM 88.0°F31.1°C 76.1°F24.5°C 68% 10.7 mph 17.2 kmh 16.8 mph27.0 kmh 29.64 in1003.7 mb 0.00 in0.0 mm 0.00 in0.0 mm 0.00 in0.0 mm
11:49 AM 87.6°F30.9°C 76.1°F24.5°C 69% 9.8 mph NW15.8 kmh NW 18.3 mph29.5 kmh 29.65 in1004.1 mb 0.00 in0.0 mm 0.00 in0.0 mm 0.00 in0.0 mm
11:39 AM 87.3°F30.7°C 76.3°F24.6°C 70% 7.6 mph NW12.2 kmh NW 18.3 mph29.5 kmh 29.65 in1004.1 mb 0.00 in0.0 mm 0.00 in0.0 mm 0.00 in0.0 mm
11:29 AM 86.9°F30.5°C 75.9°F24.4°C 70% 13.0 mph NW20.9 kmh NW 17.4 mph28.0 kmh 29.65 in1004.1 mb 0.00 in0.0 mm 0.00 in0.0 mm 0.00 in0.0 mm
11:19 AM 86.5°F30.3°C 76.5°F24.7°C 72% 7.6 mph 12.2 kmh 19.0 mph30.6 kmh 29.66 in1004.4 mb 0.00 in0.0 mm 0.00 in0.0 mm 0.00 in0.0 mm
11:09 AM 86.2°F30.1°C 76.1°F24.5°C 72% 12.1 mph 19.5 kmh 18.3 mph29.5 kmh 29.66 in1004.4 mb 0.00 in0.0 mm 0.00 in0.0 mm 0.00 in0.0 mm
10:59 AM 86.0°F30.0°C 76.8°F24.9°C 74% 8.3 mph 13.4 kmh 14.5 mph23.3 kmh 29.66 in1004.4 mb 0.00 in0.0 mm 0.00 in0.0 mm 0.00 in0.0 mm
10:49 AM 85.6°F29.8°C 76.8°F24.9°C 75% 6.0 mph 9.7 kmh 15.9 mph25.6 kmh 29.67 in1004.7 mb 0.00 in0.0 mm 0.00 in0.0 mm 0.00 in0.0 mm
10:39 AM 84.6°F29.2°C 75.4°F24.1°C 74% 8.3 mph 13.4 kmh 15.2 mph24.5 kmh 29.67 in1004.7 mb 0.00 in0.0 mm 0.00 in0.0 mm 0.00 in0.0 mm
10:29 AM 84.7°F29.3°C 76.3°F24.6°C 76% 11.4 mph 18.3 kmh 15.9 mph25.6 kmh 29.68 in1005.1 mb 0.00 in0.0 mm 0.00 in0.0 mm 0.00 in0.0 mm
10:18 AM 84.2°F29.0°C 77.0°F25.0°C 79% 7.6 mph 12.2 kmh 13.6 mph21.9 kmh 29.68 in1005.1 mb 0.00 in0.0 mm 0.00 in0.0 mm 0.00 in0.0 mm
10:08 AM 83.7°F28.7°C 76.5°F24.7°C 79% 8.3 mph 13.4 kmh 15.9 mph25.6 kmh 29.69 in1005.4 mb 0.00 in0.0 mm 0.00 in0.0 mm 0.00 in0.0 mm
09:58 AM 82.9°F28.3°C 76.5°F24.7°C 81% 5.4 mph NW8.7 kmh NW 12.1 mph19.5 kmh 29.68 in1005.1 mb 0.00 in0.0 mm 0.00 in0.0 mm 0.00 in0.0 mm
09:48 AM 82.8°F28.2°C 75.6°F24.2°C 79% 9.2 mph 14.8 kmh 11.4 mph18.3 kmh 29.68 in1005.1 mb 0.00 in0.0 mm 0.00 in0.0 mm 0.00 in0.0 mm
09:38 AM 82.0°F27.8°C 75.2°F24.0°C 80% 7.6 mph 12.2 kmh 14.5 mph23.3 kmh 29.69 in1005.4 mb 0.00 in0.0 mm 0.00 in0.0 mm 0.00 in0.0 mm
09:28 AM 81.1°F27.3°C 74.7°F23.7°C 81% 6.9 mph 11.1 kmh 13.6 mph21.9 kmh 29.70 in1005.8 mb 0.00 in0.0 mm 0.00 in0.0 mm 0.00 in0.0 mm
09:18 AM 80.6°F27.0°C 75.4°F24.1°C 84% 8.3 mph 13.4 kmh 13.6 mph21.9 kmh 29.70 in1005.8 mb 0.00 in0.0 mm 0.00 in0.0 mm 0.00 in0.0 mm
09:08 AM 80.1°F26.7°C 75.6°F24.2°C 86% 6.9 mph NNW11.1 kmh NNW 11.4 mph18.3 kmh 29.70 in1005.8 mb 0.00 in0.0 mm 0.00 in0.0 mm 0.00 in0.0 mm
08:58 AM 79.2°F26.2°C 75.9°F24.4°C 90% 7.6 mph 12.2 kmh 13.6 mph21.9 kmh 29.70 in1005.8 mb 0.00 in0.0 mm 0.00 in0.0 mm 0.00 in0.0 mm
08:48 AM 78.1°F25.6°C 76.3°F24.6°C 94% 3.8 mph 6.1 kmh 9.8 mph15.8 kmh 29.70 in1005.8 mb 0.00 in0.0 mm 0.00 in0.0 mm 0.00 in0.0 mm
08:37 AM 77.2°F25.1°C 75.9°F24.4°C 96% 3.1 mph 5.0 kmh 11.4 mph18.3 kmh 29.70 in1005.8 mb 0.00 in0.0 mm 0.00 in0.0 mm 0.00 in0.0 mm
08:27 AM 76.5°F24.7°C 75.2°F24.0°C 96% 5.4 mph 8.7 kmh 11.4 mph18.3 kmh 29.70 in1005.8 mb 0.00 in0.0 mm 0.00 in0.0 mm 0.00 in0.0 mm
08:17 AM 75.7°F24.3°C 74.8°F23.8°C 97% 7.6 mph 12.2 kmh 11.4 mph18.3 kmh 29.70 in1005.8 mb 0.00 in0.0 mm 0.00 in0.0 mm 0.00 in0.0 mm
08:07 AM 74.3°F23.5°C 73.9°F23.3°C 99% 5.4 mph 8.7 kmh 8.3 mph13.4 kmh 29.70 in1005.8 mb 0.00 in0.0 mm 0.00 in0.0 mm 0.00 in0.0 mm
07:57 AM 73.8°F23.2°C 73.4°F23.0°C 99% 4.5 mph 7.2 kmh 9.2 mph14.8 kmh 29.70 in1005.8 mb 0.00 in0.0 mm 0.00 in0.0 mm 0.00 in0.0 mm
07:47 AM 72.7°F22.6°C 72.7°F22.6°C 100% 5.4 mph 8.7 kmh 9.8 mph15.8 kmh 29.70 in1005.8 mb 0.00 in0.0 mm 0.00 in0.0 mm 0.00 in0.0 mm
07:37 AM 72.0°F22.2°C 72.0°F22.2°C 100% 4.5 mph 7.2 kmh 7.6 mph12.2 kmh 29.70 in1005.8 mb 0.00 in0.0 mm 0.00 in0.0 mm 0.00 in0.0 mm
07:27 AM 71.1°F21.7°C 71.1°F21.7°C 100% 3.8 mph 6.1 kmh 7.6 mph12.2 kmh 29.70 in1005.8 mb 0.00 in0.0 mm 0.00 in0.0 mm 0.00 in0.0 mm
07:17 AM 70.0°F21.1°C 70.0°F21.1°C 100% 4.5 mph 7.2 kmh 6.9 mph11.1 kmh 29.69 in1005.4 mb 0.00 in0.0 mm 0.00 in0.0 mm 0.00 in0.0 mm
07:07 AM 69.4°F20.8°C 69.4°F20.8°C 100% 3.1 mph NE5.0 kmh NE 5.4 mph8.7 kmh 29.69 in1005.4 mb 0.00 in0.0 mm 0.00 in0.0 mm 0.00 in0.0 mm
06:56 AM 69.1°F20.6°C 69.1°F20.6°C 100% 3.8 mph NE6.1 kmh NE 5.4 mph8.7 kmh 29.69 in1005.4 mb 0.00 in0.0 mm 0.00 in0.0 mm 0.00 in0.0 mm
06:46 AM 68.5°F20.3°C 68.5°F20.3°C 100% 2.2 mph 3.5 kmh 4.5 mph7.2 kmh 29.69 in1005.4 mb 0.00 in0.0 mm 0.00 in0.0 mm 0.00 in0.0 mm
06:36 AM 68.5°F20.3°C 68.5°F20.3°C 100% 2.2 mph 3.5 kmh 3.8 mph6.1 kmh 29.68 in1005.1 mb 0.00 in0.0 mm 0.00 in0.0 mm 0.00 in0.0 mm
06:26 AM 68.5°F20.3°C 68.5°F20.3°C 100% 1.6 mph 2.6 kmh 4.5 mph7.2 kmh 29.68 in1005.1 mb 0.00 in0.0 mm 0.00 in0.0 mm 0.00 in0.0 mm
06:16 AM 68.7°F20.4°C 68.7°F20.4°C 100% 2.2 mph 3.5 kmh 5.4 mph8.7 kmh 29.69 in1005.4 mb 0.00 in0.0 mm 0.00 in0.0 mm 0.00 in0.0 mm
06:06 AM 68.7°F20.4°C 68.7°F20.4°C 100% 2.2 mph 3.5 kmh 5.4 mph8.7 kmh 29.68 in1005.1 mb 0.00 in0.0 mm 0.00 in0.0 mm 0.00 in0.0 mm
05:56 AM 68.7°F20.4°C 68.7°F20.4°C 100% 2.2 mph 3.5 kmh 5.4 mph8.7 kmh 29.68 in1005.1 mb 0.00 in0.0 mm 0.00 in0.0 mm 0.00 in0.0 mm
05:46 AM 68.7°F20.4°C 68.7°F20.4°C 100% 2.2 mph 3.5 kmh 5.4 mph8.7 kmh 29.68 in1005.1 mb 0.00 in0.0 mm 0.00 in0.0 mm 0.00 in0.0 mm
05:36 AM 68.9°F20.5°C 68.9°F20.5°C 100% 1.6 mph NE2.6 kmh NE 5.4 mph8.7 kmh 29.68 in1005.1 mb 0.00 in0.0 mm 0.00 in0.0 mm 0.00 in0.0 mm
05:25 AM 69.3°F20.7°C 69.3°F20.7°C 100% 2.2 mph 3.5 kmh 4.5 mph7.2 kmh 29.67 in1004.7 mb 0.00 in0.0 mm 0.00 in0.0 mm 0.00 in0.0 mm
05:15 AM 69.1°F20.6°C 69.1°F20.6°C 100% 2.2 mph NNE3.5 kmh NNE 4.5 mph7.2 kmh 29.67 in1004.7 mb 0.00 in0.0 mm 0.00 in0.0 mm 0.00 in0.0 mm
05:05 AM 69.6°F20.9°C 69.6°F20.9°C 100% 2.2 mph 3.5 kmh 6.0 mph9.7 kmh 29.67 in1004.7 mb 0.00 in0.0 mm 0.00 in0.0 mm 0.00 in0.0 mm
04:55 AM 69.4°F20.8°C 69.4°F20.8°C 100% 3.8 mph 6.1 kmh 5.4 mph8.7 kmh 29.67 in1004.7 mb 0.00 in0.0 mm 0.00 in0.0 mm 0.00 in0.0 mm
04:45 AM 69.6°F20.9°C 69.6°F20.9°C 100% 2.2 mph 3.5 kmh 6.9 mph11.1 kmh 29.67 in1004.7 mb 0.00 in0.0 mm 0.00 in0.0 mm 0.00 in0.0 mm
04:35 AM 69.8°F21.0°C 69.8°F21.0°C 100% 4.5 mph 7.2 kmh 6.9 mph11.1 kmh 29.67 in1004.7 mb 0.00 in0.0 mm 0.00 in0.0 mm 0.00 in0.0 mm
04:25 AM 69.8°F21.0°C 69.8°F21.0°C 100% 4.5 mph 7.2 kmh 8.3 mph13.4 kmh 29.67 in1004.7 mb 0.00 in0.0 mm 0.00 in0.0 mm 0.00 in0.0 mm
04:15 AM 69.6°F20.9°C 69.6°F20.9°C 100% 3.8 mph 6.1 kmh 6.0 mph9.7 kmh 29.67 in1004.7 mb 0.00 in0.0 mm 0.00 in0.0 mm 0.00 in0.0 mm
04:05 AM 69.6°F20.9°C 69.6°F20.9°C 100% 3.8 mph 6.1 kmh 5.4 mph8.7 kmh 29.67 in1004.7 mb 0.00 in0.0 mm 0.00 in0.0 mm 0.00 in0.0 mm
03:55 AM 69.8°F21.0°C 69.8°F21.0°C 100% 3.1 mph 5.0 kmh 5.4 mph8.7 kmh 29.67 in1004.7 mb 0.00 in0.0 mm 0.00 in0.0 mm 0.00 in0.0 mm
03:44 AM 69.8°F21.0°C 69.8°F21.0°C 100% 3.1 mph 5.0 kmh 5.4 mph8.7 kmh 29.67 in1004.7 mb 0.00 in0.0 mm 0.00 in0.0 mm 0.00 in0.0 mm
03:34 AM 69.8°F21.0°C 69.8°F21.0°C 100% 3.1 mph 5.0 kmh 6.9 mph11.1 kmh 29.67 in1004.7 mb 0.00 in0.0 mm 0.00 in0.0 mm 0.00 in0.0 mm
03:24 AM 69.8°F21.0°C 69.8°F21.0°C 100% 3.1 mph 5.0 kmh 6.0 mph9.7 kmh 29.67 in1004.7 mb 0.00 in0.0 mm 0.00 in0.0 mm 0.00 in0.0 mm
03:14 AM 70.0°F21.1°C 70.0°F21.1°C 100% 3.1 mph 5.0 kmh 5.4 mph8.7 kmh 29.66 in1004.4 mb 0.00 in0.0 mm 0.00 in0.0 mm 0.00 in0.0 mm
03:04 AM 70.2°F21.2°C 70.2°F21.2°C 100% 3.1 mph 5.0 kmh -- 29.67 in1004.7 mb 0.00 in0.0 mm 0.00 in0.0 mm 0.00 in0.0 mm
03:02 AM 70.0°F21.1°C 70.0°F21.1°C 100% 3.1 mph 5.0 kmh -- 29.67 in1004.7 mb 0.00 in0.0 mm 0.00 in0.0 mm 0.00 in0.0 mm
02:57 AM 70.0°F21.1°C 70.0°F21.1°C 100% 3.1 mph 5.0 kmh 6.9 mph11.1 kmh 29.67 in1004.7 mb 0.00 in0.0 mm 0.00 in0.0 mm 0.00 in0.0 mm
02:47 AM 70.2°F21.2°C 70.2°F21.2°C 100% 3.8 mph 6.1 kmh 6.0 mph9.7 kmh 29.67 in1004.7 mb 0.00 in0.0 mm 0.00 in0.0 mm 0.00 in0.0 mm
02:37 AM 70.3°F21.3°C 70.3°F21.3°C 100% 3.8 mph 6.1 kmh 6.9 mph11.1 kmh 29.67 in1004.7 mb 0.00 in0.0 mm 0.00 in0.0 mm 0.00 in0.0 mm
02:27 AM 70.9°F21.6°C 70.9°F21.6°C 100% 4.5 mph 7.2 kmh 6.9 mph11.1 kmh 29.67 in1004.7 mb 0.00 in0.0 mm 0.00 in0.0 mm 0.00 in0.0 mm
02:16 AM 70.5°F21.4°C 70.5°F21.4°C 100% 3.8 mph 6.1 kmh 6.9 mph11.1 kmh 29.67 in1004.7 mb 0.00 in0.0 mm 0.00 in0.0 mm 0.00 in0.0 mm
02:06 AM 71.2°F21.8°C 71.2°F21.8°C 100% 4.5 mph 7.2 kmh 6.9 mph11.1 kmh 29.68 in1005.1 mb 0.00 in0.0 mm 0.00 in0.0 mm 0.00 in0.0 mm
01:56 AM 71.1°F21.7°C 71.1°F21.7°C 100% 4.5 mph 7.2 kmh 8.3 mph13.4 kmh 29.68 in1005.1 mb 0.00 in0.0 mm 0.00 in0.0 mm 0.00 in0.0 mm
01:46 AM 71.1°F21.7°C 71.1°F21.7°C 100% 3.1 mph 5.0 kmh 7.6 mph12.2 kmh 29.68 in1005.1 mb 0.00 in0.0 mm 0.00 in0.0 mm 0.00 in0.0 mm
01:36 AM 71.2°F21.8°C 71.2°F21.8°C 100% 3.8 mph 6.1 kmh 6.9 mph11.1 kmh 29.68 in1005.1 mb 0.00 in0.0 mm 0.00 in0.0 mm 0.00 in0.0 mm
01:26 AM 71.2°F21.8°C 71.2°F21.8°C 100% 3.8 mph 6.1 kmh 7.6 mph12.2 kmh 29.69 in1005.4 mb 0.00 in0.0 mm 0.00 in0.0 mm 0.00 in0.0 mm
01:16 AM 71.6°F22.0°C 71.2°F21.8°C 99% 3.8 mph NE6.1 kmh NE 6.0 mph9.7 kmh 29.69 in1005.4 mb 0.00 in0.0 mm 0.00 in0.0 mm 0.00 in0.0 mm
01:06 AM 72.0°F22.2°C 71.6°F22.0°C 99% 3.1 mph 5.0 kmh 7.6 mph12.2 kmh 29.69 in1005.4 mb 0.00 in0.0 mm 0.00 in0.0 mm 0.00 in0.0 mm
12:56 AM 72.1°F22.3°C 71.8°F22.1°C 99% 3.8 mph 6.1 kmh 7.6 mph12.2 kmh 29.69 in1005.4 mb 0.00 in0.0 mm 0.00 in0.0 mm 0.00 in0.0 mm
12:46 AM 72.3°F22.4°C 72.0°F22.2°C 99% 5.4 mph 8.7 kmh 7.6 mph12.2 kmh 29.70 in1005.8 mb 0.00 in0.0 mm 0.00 in0.0 mm 0.00 in0.0 mm
12:35 AM 72.1°F22.3°C 71.6°F22.0°C 98% 4.5 mph 7.2 kmh 6.9 mph11.1 kmh 29.70 in1005.8 mb 0.00 in0.0 mm 0.00 in0.0 mm 0.00 in0.0 mm
12:25 AM 72.7°F22.6°C 72.1°F22.3°C 98% 3.8 mph 6.1 kmh 9.2 mph14.8 kmh 29.70 in1005.8 mb 0.00 in0.0 mm 0.00 in0.0 mm 0.00 in0.0 mm
12:15 AM 72.5°F22.5°C 72.0°F22.2°C 98% 5.4 mph 8.7 kmh 8.3 mph13.4 kmh 29.70 in1005.8 mb 0.00 in0.0 mm 0.00 in0.0 mm 0.00 in0.0 mm
12:05 AM 72.9°F22.7°C 72.3°F22.4°C 98% 6.0 mph 9.7 kmh 8.3 mph13.4 kmh 29.70 in1005.8 mb 0.00 in0.0 mm 0.00 in0.0 mm 0.00 in0.0 mm